Time;durP1;ratioP1;P1;durP2;ratioP2;P2;SDS_P1;SDS_P2;PMS_P1;PMS_P2;Temp;Humidity;BMP_temperature;BMP_pressure;BME280_temperature;BME280_humidity;BME280_pressure;Samples;Min_cycle;Max_cycle;Signal;HPM_P1;HPM_P2
2022/10/14 00:02:06;;;;;;;;;;;13.60;70.50;;;;;;5044421;28;88164;-38
2022/10/14 00:04:32;;;;;;;;;;;13.50;70.50;;;;;;5044763;28;87094;-38
2022/10/14 00:06:57;;;;;;;;;;;13.50;70.50;;;;;;5044586;28;86972;-38
2022/10/14 00:09:23;;;;;;;;;;;13.50;70.50;;;;;;5047432;28;88136;-38
2022/10/14 00:11:48;;;;;;;;;;;13.50;70.50;;;;;;5044684;27;87299;-38
2022/10/14 00:14:15;;;;;;;;;;;13.50;70.40;;;;;;5044662;28;87020;-38
2022/10/14 00:16:41;;;;;;;;;;;13.50;70.50;;;;;;5044862;28;87403;-38
2022/10/14 00:19:07;;;;;;;;;;;13.50;70.50;;;;;;5044508;28;87584;-38
2022/10/14 00:21:33;;;;;;;;;;;13.50;70.50;;;;;;5043470;28;88755;-37
2022/10/14 00:23:59;;;;;;;;;;;13.50;70.50;;;;;;5044038;28;87270;-38
2022/10/14 00:26:26;;;;;;;;;;;13.50;70.50;;;;;;5044589;27;87438;-38
2022/10/14 00:28:51;;;;;;;;;;;13.50;70.50;;;;;;5044096;28;88092;-38
2022/10/14 00:31:17;;;;;;;;;;;13.50;70.50;;;;;;5047418;28;87175;-38
2022/10/14 00:33:43;;;;;;;;;;;13.50;70.50;;;;;;5043687;28;88142;-37
2022/10/14 00:36:10;;;;;;;;;;;13.50;70.60;;;;;;5044262;28;87296;-38
2022/10/14 00:38:36;;;;;;;;;;;13.50;70.70;;;;;;5044408;27;90092;-38
2022/10/14 00:41:01;;;;;;;;;;;13.50;70.70;;;;;;5043833;28;88040;-38
2022/10/14 00:43:27;;;;;;;;;;;13.40;70.60;;;;;;5044238;28;86978;-37
2022/10/14 00:45:53;;;;;;;;;;;13.40;70.50;;;;;;5043670;27;87829;-38
2022/10/14 00:48:20;;;;;;;;;;;13.40;70.60;;;;;;5043518;28;88077;-38
2022/10/14 00:50:47;;;;;;;;;;;13.40;70.50;;;;;;5043825;28;87135;-38
2022/10/14 00:53:13;;;;;;;;;;;13.40;70.60;;;;;;5046249;27;87471;-37
2022/10/14 00:55:39;;;;;;;;;;;13.40;70.60;;;;;;5044094;28;87152;-37
2022/10/14 00:58:05;;;;;;;;;;;13.40;70.60;;;;;;5043839;27;87314;-37
2022/10/14 01:00:31;;;;;;;;;;;13.40;70.50;;;;;;5043564;28;88210;-37
2022/10/14 01:02:56;;;;;;;;;;;13.40;70.50;;;;;;5043560;28;86358;-38
2022/10/14 01:05:22;;;;;;;;;;;13.40;70.60;;;;;;5043747;28;86938;-38
2022/10/14 01:07:56;;;;;;;;;;;13.40;70.60;;;;;;5043265;28;88130;-38
2022/10/14 01:10:31;;;;;;;;;;;13.40;70.60;;;;;;5043175;28;88049;-38
2022/10/14 01:12:57;;;;;;;;;;;13.40;70.50;;;;;;5043346;28;88220;-38
2022/10/14 01:15:32;;;;;;;;;;;13.40;70.50;;;;;;5046176;28;87325;-38
2022/10/14 01:18:00;;;;;;;;;;;13.40;70.60;;;;;;5043676;28;87415;-38
2022/10/14 01:20:48;;;;;;;;;;;13.40;70.60;;;;;;5043352;28;88212;-38
2022/10/14 01:23:33;;;;;;;;;;;13.40;70.60;;;;;;5036851;28;87710;-37
2022/10/14 01:26:17;;;;;;;;;;;13.40;70.60;;;;;;5043501;27;88023;-38
2022/10/14 01:29:01;;;;;;;;;;;13.40;70.60;;;;;;5043635;27;87346;-38
2022/10/14 01:31:31;;;;;;;;;;;13.40;70.60;;;;;;5043454;27;87169;-38
2022/10/14 01:33:57;;;;;;;;;;;13.40;70.70;;;;;;5043308;27;87533;-38
2022/10/14 01:36:26;;;;;;;;;;;13.40;70.60;;;;;;5042132;28;89214;-38
2022/10/14 01:38:58;;;;;;;;;;;13.40;70.70;;;;;;5045802;28;86973;-37
2022/10/14 01:41:28;;;;;;;;;;;13.40;70.60;;;;;;5042806;28;87390;-38
2022/10/14 01:43:55;;;;;;;;;;;13.40;70.60;;;;;;5043202;28;87178;-38
2022/10/14 01:46:21;;;;;;;;;;;13.40;70.60;;;;;;5042994;27;87589;-38
2022/10/14 01:48:50;;;;;;;;;;;13.40;70.60;;;;;;5042890;28;87978;-38
2022/10/14 01:51:35;;;;;;;;;;;13.40;70.60;;;;;;5042862;28;87124;-38
2022/10/14 01:54:07;;;;;;;;;;;13.40;70.50;;;;;;5041579;28;90536;-38
2022/10/14 01:56:33;;;;;;;;;;;13.40;70.60;;;;;;5042491;28;88029;-38
2022/10/14 01:58:59;;;;;;;;;;;13.30;70.60;;;;;;5046061;28;87159;-37
2022/10/14 02:01:25;;;;;;;;;;;13.30;70.50;;;;;;5041646;28;89026;-38
2022/10/14 02:03:51;;;;;;;;;;;13.40;70.60;;;;;;5042968;28;87065;-38
2022/10/14 02:06:37;;;;;;;;;;;13.30;70.60;;;;;;5042879;28;86862;-38
2022/10/14 02:09:22;;;;;;;;;;;13.30;70.60;;;;;;5042773;28;87629;-38
2022/10/14 02:11:51;;;;;;;;;;;13.30;70.50;;;;;;5034701;28;87132;-38
2022/10/14 02:14:31;;;;;;;;;;;13.30;70.60;;;;;;5042703;27;87530;-38
2022/10/14 02:17:06;;;;;;;;;;;13.30;70.70;;;;;;5042561;28;88068;-38
2022/10/14 02:19:37;;;;;;;;;;;13.30;70.70;;;;;;5043018;28;86828;-38
2022/10/14 02:22:07;;;;;;;;;;;13.30;70.60;;;;;;5045417;27;86907;-38
2022/10/14 02:24:34;;;;;;;;;;;13.30;70.70;;;;;;5042222;28;87087;-37
2022/10/14 02:27:03;;;;;;;;;;;13.30;70.60;;;;;;5041745;27;87934;-38
2022/10/14 02:29:30;;;;;;;;;;;13.30;70.60;;;;;;5042243;28;88391;-38
2022/10/14 02:31:56;;;;;;;;;;;13.30;70.60;;;;;;5042415;28;87140;-37
2022/10/14 02:34:23;;;;;;;;;;;13.30;70.70;;;;;;5042367;28;87755;-38
2022/10/14 02:36:49;;;;;;;;;;;13.30;70.90;;;;;;5042054;28;88019;-38
2022/10/14 02:39:18;;;;;;;;;;;13.20;71.00;;;;;;5042513;28;87148;-38
2022/10/14 02:41:43;;;;;;;;;;;13.20;70.90;;;;;;5042407;27;87368;-38
2022/10/14 02:44:09;;;;;;;;;;;13.20;70.70;;;;;;5045586;28;87297;-38
2022/10/14 02:46:34;;;;;;;;;;;13.20;70.70;;;;;;5042284;28;87025;-38
2022/10/14 02:49:00;;;;;;;;;;;13.30;70.70;;;;;;5041897;28;87573;-38
2022/10/14 02:51:25;;;;;;;;;;;13.30;70.70;;;;;;5041684;28;89313;-38
2022/10/14 02:53:51;;;;;;;;;;;13.30;70.70;;;;;;5042342;28;88368;-37
2022/10/14 02:56:17;;;;;;;;;;;13.20;70.60;;;;;;5041658;28;87183;-37
2022/10/14 02:58:42;;;;;;;;;;;13.30;70.60;;;;;;5042471;28;87053;-38
2022/10/14 03:01:08;;;;;;;;;;;13.20;70.70;;;;;;5042138;28;87453;-38
2022/10/14 03:03:33;;;;;;;;;;;13.20;70.70;;;;;;5042050;28;88198;-38
2022/10/14 03:05:59;;;;;;;;;;;13.20;70.70;;;;;;5045267;28;87237;-38
2022/10/14 03:08:24;;;;;;;;;;;13.20;70.70;;;;;;5042230;28;86428;-38
2022/10/14 03:10:50;;;;;;;;;;;13.20;70.70;;;;;;5042043;28;87117;-37
2022/10/14 03:13:15;;;;;;;;;;;13.20;70.70;;;;;;5041851;27;87345;-38
2022/10/14 03:15:41;;;;;;;;;;;13.20;70.70;;;;;;5041053;28;88050;-38
2022/10/14 03:18:06;;;;;;;;;;;13.20;70.60;;;;;;5041943;28;87044;-38
2022/10/14 03:20:32;;;;;;;;;;;13.20;70.70;;;;;;5042110;27;87264;-38
2022/10/14 03:22:57;;;;;;;;;;;13.20;70.60;;;;;;5040986;28;88177;-37
2022/10/14 03:25:23;;;;;;;;;;;13.20;70.60;;;;;;5042119;27;86986;-38
2022/10/14 03:27:49;;;;;;;;;;;13.20;70.50;;;;;;5047781;28;87591;-38
2022/10/14 03:30:14;;;;;;;;;;;13.20;70.60;;;;;;5045327;28;87354;-39
2022/10/14 03:32:40;;;;;;;;;;;13.20;70.60;;;;;;5045678;28;86604;-38
2022/10/14 03:35:05;;;;;;;;;;;13.20;70.60;;;;;;5044998;28;88023;-38
2022/10/14 03:37:31;;;;;;;;;;;13.20;70.60;;;;;;5045335;28;87047;-38
2022/10/14 03:39:56;;;;;;;;;;;13.20;71.20;;;;;;5044486;28;88417;-38
2022/10/14 03:42:22;;;;;;;;;;;13.20;70.70;;;;;;5044587;28;88014;-38
2022/10/14 03:44:48;;;;;;;;;;;13.20;70.70;;;;;;5044869;28;86869;-37
2022/10/14 03:47:13;;;;;;;;;;;13.20;70.70;;;;;;5047508;27;87326;-38
2022/10/14 03:49:39;;;;;;;;;;;13.20;70.70;;;;;;5045009;28;87079;-38
2022/10/14 03:52:04;;;;;;;;;;;13.20;70.60;;;;;;5044889;28;87437;-38
2022/10/14 03:54:30;;;;;;;;;;;13.10;70.60;;;;;;5044666;28;87999;-37
2022/10/14 03:56:55;;;;;;;;;;;13.10;70.60;;;;;;5045098;28;86413;-38
2022/10/14 03:59:21;;;;;;;;;;;13.10;70.60;;;;;;5044913;28;86942;-38
2022/10/14 04:01:46;;;;;;;;;;;13.20;70.70;;;;;;5044494;28;88352;-37
2022/10/14 04:04:12;;;;;;;;;;;13.20;71.20;;;;;;5044104;28;87992;-38
2022/10/14 04:06:37;;;;;;;;;;;13.10;70.60;;;;;;5044890;27;88136;-39
2022/10/14 04:09:03;;;;;;;;;;;13.10;70.50;;;;;;5047482;28;87985;-38
2022/10/14 04:11:28;;;;;;;;;;;13.10;70.60;;;;;;5044406;27;87409;-38
2022/10/14 04:13:58;;;;;;;;;;;13.10;70.60;;;;;;5044215;28;87949;-38
2022/10/14 04:16:23;;;;;;;;;;;13.10;70.60;;;;;;5044672;28;87069;-38
2022/10/14 04:18:49;;;;;;;;;;;13.10;70.70;;;;;;5044550;28;87332;-38
2022/10/14 04:21:14;;;;;;;;;;;13.10;70.60;;;;;;5044596;28;87549;-37
2022/10/14 04:23:40;;;;;;;;;;;13.10;70.60;;;;;;5044164;28;87033;-38
2022/10/14 04:26:07;;;;;;;;;;;13.10;70.60;;;;;;5044530;28;86934;-38
2022/10/14 04:28:32;;;;;;;;;;;13.10;70.60;;;;;;5043172;28;89018;-38
2022/10/14 04:30:58;;;;;;;;;;;13.10;70.70;;;;;;5047298;28;87069;-37
2022/10/14 04:33:24;;;;;;;;;;;13.10;70.60;;;;;;5043952;28;88177;-37
2022/10/14 04:35:50;;;;;;;;;;;13.10;70.60;;;;;;5044250;28;87063;-38
2022/10/14 04:38:16;;;;;;;;;;;13.10;70.70;;;;;;5043173;28;87310;-37
2022/10/14 04:40:44;;;;;;;;;;;13.10;70.70;;;;;;5043906;28;87992;-38
2022/10/14 04:43:10;;;;;;;;;;;13.10;70.50;;;;;;5044287;28;87201;-37
2022/10/14 04:45:35;;;;;;;;;;;13.10;70.60;;;;;;5044504;28;87438;-37
2022/10/14 04:48:01;;;;;;;;;;;13.10;70.60;;;;;;5043620;28;88326;-38
2022/10/14 04:50:26;;;;;;;;;;;13.10;70.70;;;;;;5043985;28;87187;-37
2022/10/14 04:52:52;;;;;;;;;;;13.10;70.70;;;;;;5046033;27;87863;-37
2022/10/14 04:55:17;;;;;;;;;;;13.10;70.60;;;;;;5044133;28;87168;-37
2022/10/14 04:57:43;;;;;;;;;;;13.10;70.60;;;;;;5043878;27;87399;-37
2022/10/14 05:00:10;;;;;;;;;;;13.10;70.70;;;;;;5043595;28;87992;-38
2022/10/14 05:02:35;;;;;;;;;;;13.00;70.50;;;;;;5043834;28;87092;-37
2022/10/14 05:05:01;;;;;;;;;;;13.10;70.70;;;;;;5043826;28;87431;-38
2022/10/14 05:07:26;;;;;;;;;;;13.00;70.60;;;;;;5043463;28;87957;-37
2022/10/14 05:09:53;;;;;;;;;;;13.00;70.60;;;;;;5044186;28;86274;-37
2022/10/14 05:12:18;;;;;;;;;;;13.00;70.60;;;;;;5041859;28;88848;-38
2022/10/14 05:14:44;;;;;;;;;;;13.00;70.60;;;;;;5046508;28;88500;-38
2022/10/14 05:17:09;;;;;;;;;;;13.10;70.70;;;;;;5043222;27;87926;-37
2022/10/14 05:19:35;;;;;;;;;;;13.00;70.60;;;;;;5043268;28;87202;-38
2022/10/14 05:22:00;;;;;;;;;;;13.10;70.60;;;;;;5043551;28;87101;-37
2022/10/14 05:24:26;;;;;;;;;;;13.00;70.60;;;;;;5043079;28;87366;-37
2022/10/14 05:26:51;;;;;;;;;;;13.00;70.60;;;;;;5042923;28;88300;-38
2022/10/14 05:29:17;;;;;;;;;;;13.00;70.60;;;;;;5043347;28;87112;-37
2022/10/14 05:31:42;;;;;;;;;;;13.00;70.60;;;;;;5043671;28;87467;-37
2022/10/14 05:34:08;;;;;;;;;;;13.00;70.60;;;;;;5043412;28;87319;-37
2022/10/14 05:36:33;;;;;;;;;;;13.00;70.70;;;;;;5046280;28;87114;-37
2022/10/14 05:38:59;;;;;;;;;;;13.00;70.60;;;;;;5042860;28;87798;-38
2022/10/14 05:41:24;;;;;;;;;;;13.00;70.60;;;;;;5042592;28;88063;-37
2022/10/14 05:43:50;;;;;;;;;;;13.00;70.70;;;;;;5043269;27;88274;-37
2022/10/14 05:46:15;;;;;;;;;;;13.00;70.70;;;;;;5042887;28;87730;-38
2022/10/14 05:48:41;;;;;;;;;;;13.00;70.70;;;;;;5042273;27;87143;-38
2022/10/14 05:51:07;;;;;;;;;;;13.00;70.70;;;;;;5043166;27;87451;-37
2022/10/14 05:53:32;;;;;;;;;;;13.00;70.70;;;;;;5042873;28;88193;-37
2022/10/14 05:56:07;;;;;;;;;;;13.00;70.60;;;;;;5045961;28;87103;-38
2022/10/14 05:58:33;;;;;;;;;;;13.00;70.60;;;;;;5042968;28;87122;-37
2022/10/14 06:01:01;;;;;;;;;;;13.00;70.70;;;;;;5042922;28;87130;-38
2022/10/14 06:03:27;;;;;;;;;;;13.00;70.70;;;;;;5042647;27;87628;-37
2022/10/14 06:05:53;;;;;;;;;;;13.00;70.70;;;;;;5041938;28;88890;-37
2022/10/14 06:08:19;;;;;;;;;;;13.00;70.60;;;;;;5042867;28;87108;-38
2022/10/14 06:10:44;;;;;;;;;;;13.00;70.60;;;;;;5042766;27;87906;-38
2022/10/14 06:13:10;;;;;;;;;;;13.00;70.60;;;;;;5042484;28;86949;-37
2022/10/14 06:15:35;;;;;;;;;;;13.00;70.60;;;;;;5042783;28;87092;-38
2022/10/14 06:18:01;;;;;;;;;;;13.00;70.60;;;;;;5045375;28;87754;-37
2022/10/14 06:20:26;;;;;;;;;;;13.00;70.60;;;;;;5042708;28;86901;-37
2022/10/14 06:22:52;;;;;;;;;;;13.00;70.60;;;;;;5042531;28;87524;-37
2022/10/14 06:25:17;;;;;;;;;;;12.90;70.60;;;;;;5042413;28;88437;-38
2022/10/14 06:27:43;;;;;;;;;;;13.00;70.60;;;;;;5042663;28;87059;-37
2022/10/14 06:30:09;;;;;;;;;;;13.00;70.70;;;;;;5042134;28;87943;-37
2022/10/14 06:32:34;;;;;;;;;;;13.00;70.70;;;;;;5042166;28;88119;-38
2022/10/14 06:35:00;;;;;;;;;;;13.00;70.60;;;;;;5042745;28;87047;-38
2022/10/14 06:37:25;;;;;;;;;;;12.90;70.70;;;;;;5042607;27;87308;-38
2022/10/14 06:39:51;;;;;;;;;;;12.90;70.60;;;;;;5045059;28;88349;-37
2022/10/14 06:42:16;;;;;;;;;;;13.00;70.60;;;;;;5042291;28;87403;-37
2022/10/14 06:44:42;;;;;;;;;;;13.00;70.60;;;;;;5042300;28;88114;-37
2022/10/14 06:47:07;;;;;;;;;;;13.00;70.70;;;;;;5042627;28;86383;-38
2022/10/14 06:49:33;;;;;;;;;;;13.00;70.70;;;;;;5042386;28;87288;-37
2022/10/14 06:51:58;;;;;;;;;;;13.00;70.70;;;;;;5042080;28;87585;-39
2022/10/14 06:54:24;;;;;;;;;;;12.90;70.60;;;;;;5041519;28;88086;-38
2022/10/14 06:56:49;;;;;;;;;;;13.00;70.70;;;;;;5042064;27;88280;-37
2022/10/14 06:59:15;;;;;;;;;;;13.00;70.80;;;;;;5041903;28;88324;-37
2022/10/14 07:01:40;;;;;;;;;;;13.00;70.70;;;;;;5047223;28;87057;-38
2022/10/14 07:04:06;;;;;;;;;;;12.90;70.70;;;;;;5045493;28;87097;-38
2022/10/14 07:06:31;;;;;;;;;;;12.90;70.70;;;;;;5045650;28;87074;-37
2022/10/14 07:08:57;;;;;;;;;;;12.90;70.60;;;;;;5045811;28;87536;-37
2022/10/14 07:11:22;;;;;;;;;;;12.90;70.70;;;;;;5045493;28;86623;-38
2022/10/14 07:13:48;;;;;;;;;;;13.00;70.70;;;;;;5045710;28;87071;-38
2022/10/14 07:16:13;;;;;;;;;;;12.90;70.70;;;;;;5045508;28;87348;-38
2022/10/14 07:18:39;;;;;;;;;;;12.90;70.70;;;;;;5044486;28;89161;-38
2022/10/14 07:21:05;;;;;;;;;;;12.90;70.80;;;;;;5045613;28;87046;-38
2022/10/14 07:23:31;;;;;;;;;;;13.00;70.60;;;;;;5047557;27;87418;-38
2022/10/14 07:25:57;;;;;;;;;;;13.00;70.50;;;;;;5045299;28;86920;-38
2022/10/14 07:28:22;;;;;;;;;;;13.00;70.40;;;;;;5045390;27;87011;-37
2022/10/14 07:31:14;;;;;;;;;;;13.00;70.50;;;;;;5044893;28;88174;-38
2022/10/14 07:33:40;;;;;;;;;;;13.00;70.40;;;;;;5042985;28;87014;-37
2022/10/14 07:36:07;;;;;;;;;;;13.00;70.50;;;;;;5045791;28;86492;-38
2022/10/14 07:38:33;;;;;;;;;;;13.00;70.50;;;;;;5044685;28;87882;-37
2022/10/14 07:41:03;;;;;;;;;;;12.90;70.50;;;;;;5045204;28;87082;-37
2022/10/14 07:43:29;;;;;;;;;;;13.00;70.50;;;;;;5044386;27;87899;-38
2022/10/14 07:46:00;;;;;;;;;;;12.90;70.60;;;;;;5047942;28;87793;-37
2022/10/14 07:48:27;;;;;;;;;;;12.90;70.50;;;;;;5045023;27;87220;-38
2022/10/14 07:50:52;;;;;;;;;;;12.90;70.60;;;;;;5044849;28;87933;-38
2022/10/14 07:53:18;;;;;;;;;;;12.90;70.60;;;;;;5044730;28;87161;-37
2022/10/14 07:55:50;;;;;;;;;;;12.90;70.80;;;;;;5044940;27;87526;-38
2022/10/14 07:58:26;;;;;;;;;;;13.00;70.70;;;;;;5044593;28;87043;-38
2022/10/14 08:00:52;;;;;;;;;;;13.00;70.60;;;;;;5045519;28;86174;-38
2022/10/14 08:03:19;;;;;;;;;;;12.90;70.60;;;;;;5044741;27;87353;-37
2022/10/14 08:05:46;;;;;;;;;;;13.00;70.50;;;;;;5047023;28;88017;-37
2022/10/14 08:08:12;;;;;;;;;;;13.00;70.50;;;;;;5044171;28;88036;-37
2022/10/14 08:10:37;;;;;;;;;;;13.00;70.60;;;;;;5044552;28;88119;-37
2022/10/14 08:13:03;;;;;;;;;;;13.00;70.60;;;;;;5044406;27;87149;-37
2022/10/14 08:15:32;;;;;;;;;;;13.00;70.70;;;;;;5044751;27;87322;-37
2022/10/14 08:17:57;;;;;;;;;;;13.00;70.60;;;;;;5043991;27;88313;-38
2022/10/14 08:20:23;;;;;;;;;;;12.90;70.70;;;;;;5044596;28;87117;-38
2022/10/14 08:22:48;;;;;;;;;;;13.00;70.70;;;;;;5044227;28;87159;-38
2022/10/14 08:25:14;;;;;;;;;;;13.00;70.60;;;;;;5044724;28;87404;-37
2022/10/14 08:27:39;;;;;;;;;;;13.00;70.60;;;;;;5047693;28;86864;-37
2022/10/14 08:30:05;;;;;;;;;;;13.00;70.70;;;;;;5044204;28;87850;-38
2022/10/14 08:32:30;;;;;;;;;;;13.00;70.60;;;;;;5043851;28;88321;-38
2022/10/14 08:34:56;;;;;;;;;;;13.00;70.60;;;;;;5044321;28;88324;-38
2022/10/14 08:37:22;;;;;;;;;;;13.00;70.50;;;;;;5043666;28;88088;-37
2022/10/14 08:39:47;;;;;;;;;;;13.00;70.70;;;;;;5044461;28;86991;-37
2022/10/14 08:42:18;;;;;;;;;;;13.00;70.60;;;;;;5044281;28;88079;-38
2022/10/14 08:44:50;;;;;;;;;;;13.00;70.70;;;;;;5043840;28;87746;-38
2022/10/14 08:47:19;;;;;;;;;;;13.00;70.70;;;;;;5043677;28;87155;-37
2022/10/14 08:49:54;;;;;;;;;;;13.00;70.50;;;;;;5047198;28;87396;-38
2022/10/14 08:52:19;;;;;;;;;;;13.00;70.60;;;;;;5043876;28;87125;-38
2022/10/14 08:54:50;;;;;;;;;;;13.00;70.60;;;;;;5043989;28;87146;-37
2022/10/14 08:57:18;;;;;;;;;;;13.00;70.50;;;;;;5041603;28;90997;-37
2022/10/14 08:59:43;;;;;;;;;;;13.10;70.50;;;;;;5043893;28;87027;-37
2022/10/14 09:02:18;;;;;;;;;;;13.00;70.50;;;;;;5044221;28;87582;-37
2022/10/14 09:04:43;;;;;;;;;;;13.00;70.60;;;;;;5043512;28;88116;-37
2022/10/14 09:07:14;;;;;;;;;;;13.00;70.60;;;;;;5043778;28;87155;-38
2022/10/14 09:09:42;;;;;;;;;;;13.00;70.60;;;;;;5044041;28;87658;-37
2022/10/14 09:12:12;;;;;;;;;;;13.00;70.50;;;;;;5044911;28;88731;-37
2022/10/14 09:14:41;;;;;;;;;;;13.10;70.60;;;;;;5044194;27;86743;-38
2022/10/14 09:17:27;;;;;;;;;;;13.10;70.50;;;;;;5043040;28;87130;-37
2022/10/14 09:20:16;;;;;;;;;;;13.00;70.60;;;;;;5043188;28;87634;-37
2022/10/14 09:22:41;;;;;;;;;;;13.00;70.70;;;;;;5036916;27;87876;-38
2022/10/14 09:25:16;;;;;;;;;;;13.00;70.80;;;;;;5042142;28;87916;-37
2022/10/14 09:27:42;;;;;;;;;;;13.10;70.60;;;;;;5043516;28;87133;-37
2022/10/14 09:30:12;;;;;;;;;;;13.00;70.80;;;;;;5043502;28;87521;-38
2022/10/14 09:32:43;;;;;;;;;;;13.00;70.90;;;;;;5042816;28;88202;-38
2022/10/14 09:35:31;;;;;;;;;;;13.00;70.90;;;;;;5046072;28;87073;-37
2022/10/14 09:37:57;;;;;;;;;;;13.00;70.90;;;;;;5037215;28;88048;-38
2022/10/14 09:40:22;;;;;;;;;;;13.00;70.90;;;;;;5043757;28;86372;-38
2022/10/14 09:42:48;;;;;;;;;;;13.00;71.30;;;;;;5043230;28;87092;-37
2022/10/14 09:45:15;;;;;;;;;;;13.00;70.90;;;;;;5042850;28;88029;-37
2022/10/14 09:47:43;;;;;;;;;;;13.00;71.00;;;;;;5042301;28;88071;-37
2022/10/14 09:50:12;;;;;;;;;;;12.90;71.20;;;;;;5043039;27;88444;-38
2022/10/14 09:52:38;;;;;;;;;;;13.00;71.00;;;;;;5042329;28;87934;-37
2022/10/14 09:55:12;;;;;;;;;;;13.00;70.90;;;;;;5043080;28;86999;-37
2022/10/14 09:57:38;;;;;;;;;;;13.00;71.10;;;;;;5045789;27;87571;-37
2022/10/14 10:00:05;;;;;;;;;;;13.00;70.90;;;;;;5043134;28;87156;-38
2022/10/14 10:02:37;;;;;;;;;;;13.00;71.10;;;;;;5043170;28;86933;-38
2022/10/14 10:05:12;;;;;;;;;;;13.00;70.90;;;;;;5043019;28;87211;-38
2022/10/14 10:07:38;;;;;;;;;;;13.00;71.00;;;;;;5042501;28;87138;-38
2022/10/14 10:10:15;;;;;;;;;;;13.00;71.20;;;;;;5043369;28;88464;-38
2022/10/14 10:12:45;;;;;;;;;;;13.00;71.10;;;;;;5041988;28;88502;-37
2022/10/14 10:15:20;;;;;;;;;;;13.00;71.00;;;;;;5042658;28;87119;-38
2022/10/14 10:17:46;;;;;;;;;;;13.10;70.90;;;;;;5045411;27;87013;-38
2022/10/14 10:20:26;;;;;;;;;;;13.00;70.90;;;;;;5042824;28;87091;-37
2022/10/14 10:22:53;;;;;;;;;;;13.00;71.00;;;;;;5042229;27;87489;-37
2022/10/14 10:25:20;;;;;;;;;;;13.00;70.90;;;;;;5042491;28;88163;-37
2022/10/14 10:27:48;;;;;;;;;;;13.00;70.90;;;;;;5042380;28;86865;-38
2022/10/14 10:30:16;;;;;;;;;;;13.00;70.90;;;;;;5043134;28;86386;-37
2022/10/14 10:33:02;;;;;;;;;;;13.10;71.10;;;;;;5042143;28;88159;-38
2022/10/14 10:35:28;;;;;;;;;;;13.10;70.90;;;;;;5043022;27;86990;-38
2022/10/14 10:38:05;;;;;;;;;;;13.00;70.90;;;;;;5045502;27;87999;-38
2022/10/14 10:40:46;;;;;;;;;;;13.00;70.90;;;;;;5048738;28;87256;-38
2022/10/14 10:43:18;;;;;;;;;;;13.10;70.90;;;;;;5046319;28;86920;-37
2022/10/14 10:45:50;;;;;;;;;;;13.10;70.90;;;;;;5045657;28;87975;-38
2022/10/14 10:48:22;;;;;;;;;;;13.10;70.80;;;;;;5046068;28;87109;-38
2022/10/14 10:50:56;;;;;;;;;;;13.10;70.80;;;;;;5045943;27;87365;-38
2022/10/14 10:53:48;;;;;;;;;;;13.10;70.80;;;;;;5045676;28;87990;-38
2022/10/14 10:56:33;;;;;;;;;;;13.10;70.90;;;;;;5043834;28;86203;-37
2022/10/14 10:59:17;;;;;;;;;;;13.10;70.80;;;;;;5045832;28;86967;-37
2022/10/14 11:02:02;;;;;;;;;;;13.20;70.80;;;;;;5045482;27;88075;-37
2022/10/14 11:04:32;;;;;;;;;;;13.20;70.90;;;;;;5048001;27;88026;-37
2022/10/14 11:13:04;;;;;;;;;;;13.20;70.50;;;;;;5045824;28;86937;-37
2022/10/14 11:15:36;;;;;;;;;;;13.20;70.60;;;;;;5045166;27;88217;-37
2022/10/14 11:18:04;;;;;;;;;;;13.20;70.60;;;;;;5045398;28;86999;-37
2022/10/14 11:20:48;;;;;;;;;;;13.20;70.30;;;;;;5045545;28;87036;-38
2022/10/14 11:23:34;;;;;;;;;;;13.20;70.20;;;;;;5044886;27;87404;-38
2022/10/14 11:26:04;;;;;;;;;;;13.20;70.40;;;;;;5045464;28;86993;-37
2022/10/14 11:28:52;;;;;;;;;;;13.20;70.30;;;;;;5048042;28;87929;-38
2022/10/14 11:31:24;;;;;;;;;;;13.20;70.30;;;;;;5044732;28;87963;-37
2022/10/14 11:33:52;;;;;;;;;;;13.20;70.20;;;;;;5045125;28;88283;-37
2022/10/14 11:36:22;;;;;;;;;;;13.20;70.20;;;;;;5044997;28;88156;-38
2022/10/14 11:39:07;;;;;;;;;;;13.20;70.20;;;;;;5045485;28;87493;-37
2022/10/14 11:41:41;;;;;;;;;;;13.20;70.20;;;;;;5045357;27;87035;-38
2022/10/14 11:44:07;;;;;;;;;;;13.20;70.10;;;;;;5045043;28;87972;-38
2022/10/14 11:46:37;;;;;;;;;;;13.20;70.00;;;;;;5044552;27;87074;-38
2022/10/14 11:49:16;;;;;;;;;;;13.30;70.00;;;;;;5045600;27;87364;-37
2022/10/14 11:51:46;;;;;;;;;;;13.30;70.00;;;;;;5047425;28;88186;-37
2022/10/14 11:54:16;;;;;;;;;;;13.20;70.00;;;;;;5044712;27;87449;-37
2022/10/14 11:56:56;;;;;;;;;;;13.30;70.00;;;;;;5043846;28;90082;-38
2022/10/14 11:59:22;;;;;;;;;;;13.30;70.00;;;;;;5044765;28;87018;-38
2022/10/14 12:01:49;;;;;;;;;;;13.30;69.80;;;;;;5045014;28;87541;-38
2022/10/14 12:04:40;;;;;;;;;;;13.30;69.80;;;;;;5044353;28;86926;-38
2022/10/14 12:07:11;;;;;;;;;;;13.30;69.80;;;;;;5042649;28;87509;-38
2022/10/14 12:10:00;;;;;;;;;;;13.30;69.90;;;;;;5044797;27;87420;-37
2022/10/14 12:12:27;;;;;;;;;;;13.30;69.80;;;;;;5037953;28;87279;-37
2022/10/14 12:14:57;;;;;;;;;;;13.30;69.60;;;;;;5047750;28;86225;-38
2022/10/14 12:17:26;;;;;;;;;;;13.40;69.40;;;;;;5044139;28;88167;-38
2022/10/14 12:19:52;;;;;;;;;;;13.40;69.00;;;;;;5044518;28;87035;-38
2022/10/14 12:22:20;;;;;;;;;;;13.40;68.80;;;;;;5043996;27;87905;-37
2022/10/14 12:24:53;;;;;;;;;;;13.40;68.70;;;;;;5043920;28;88021;-38
2022/10/14 12:27:20;;;;;;;;;;;13.40;68.70;;;;;;5044273;28;87181;-37
2022/10/14 12:29:46;;;;;;;;;;;13.40;68.60;;;;;;5044439;27;87331;-38
2022/10/14 12:32:15;;;;;;;;;;;13.40;68.60;;;;;;5044219;28;88178;-38
2022/10/14 12:34:41;;;;;;;;;;;13.40;68.70;;;;;;5047312;28;87227;-37
2022/10/14 12:37:25;;;;;;;;;;;13.40;68.40;;;;;;5043954;28;88176;-37
2022/10/14 12:39:51;;;;;;;;;;;13.40;68.40;;;;;;5044633;27;86934;-37
2022/10/14 12:42:18;;;;;;;;;;;13.40;68.10;;;;;;5044321;28;86984;-38
2022/10/14 12:44:55;;;;;;;;;;;13.50;66.90;;;;;;5042249;28;90845;-38
2022/10/14 12:47:22;;;;;;;;;;;13.50;66.30;;;;;;5043416;28;87875;-37
2022/10/14 12:49:52;;;;;;;;;;;13.40;67.00;;;;;;5043628;27;87586;-37
2022/10/14 12:52:20;;;;;;;;;;;13.40;66.90;;;;;;5043615;28;88091;-38
2022/10/14 12:54:47;;;;;;;;;;;13.40;66.60;;;;;;5043745;28;87196;-37
2022/10/14 12:57:18;;;;;;;;;;;13.40;67.00;;;;;;5046794;27;87423;-38
2022/10/14 12:59:47;;;;;;;;;;;13.40;66.60;;;;;;5043234;28;87316;-37
2022/10/14 13:02:25;;;;;;;;;;;13.50;66.50;;;;;;5043773;28;87504;-38
2022/10/14 13:04:52;;;;;;;;;;;13.50;65.50;;;;;;5043962;28;87403;-37
2022/10/14 13:07:18;;;;;;;;;;;13.40;66.20;;;;;;5043939;28;87648;-37
2022/10/14 13:09:44;;;;;;;;;;;13.50;65.80;;;;;;5043880;28;86949;-37
2022/10/14 13:12:30;;;;;;;;;;;13.50;65.20;;;;;;5042754;28;89765;-37
2022/10/14 13:15:14;;;;;;;;;;;13.50;65.40;;;;;;5043242;28;86881;-37
2022/10/14 13:17:44;;;;;;;;;;;13.50;65.00;;;;;;5043699;27;87394;-38
2022/10/14 13:20:28;;;;;;;;;;;13.50;65.10;;;;;;5046162;28;87990;-37
2022/10/14 13:22:54;;;;;;;;;;;13.50;64.80;;;;;;5042997;27;87398;-37
2022/10/14 13:25:20;;;;;;;;;;;13.50;64.50;;;;;;5043385;28;87793;-38
2022/10/14 13:27:54;;;;;;;;;;;13.50;64.90;;;;;;5043290;28;87116;-38
2022/10/14 13:30:31;;;;;;;;;;;13.50;64.40;;;;;;5044062;27;87299;-38
2022/10/14 13:32:58;;;;;;;;;;;13.60;64.00;;;;;;5043146;28;88250;-37
2022/10/14 13:35:23;;;;;;;;;;;13.50;64.80;;;;;;5043403;28;87036;-38
2022/10/14 13:38:12;;;;;;;;;;;13.60;64.40;;;;;;5042690;28;87694;-38
2022/10/14 13:40:42;;;;;;;;;;;13.60;64.40;;;;;;5036761;28;87272;-38
2022/10/14 13:43:14;;;;;;;;;;;13.50;64.40;;;;;;5046204;28;86998;-37
2022/10/14 13:45:39;;;;;;;;;;;13.60;63.90;;;;;;5043099;28;88204;-37
2022/10/14 13:48:07;;;;;;;;;;;13.60;63.30;;;;;;5042937;28;87080;-37
2022/10/14 13:50:36;;;;;;;;;;;13.50;63.20;;;;;;5043000;28;87614;-37
2022/10/14 13:53:04;;;;;;;;;;;13.50;63.20;;;;;;5042492;28;87816;-37
2022/10/14 13:55:29;;;;;;;;;;;13.60;63.70;;;;;;5043731;28;86437;-38
2022/10/14 13:58:21;;;;;;;;;;;13.60;63.30;;;;;;5043019;27;86977;-38
2022/10/14 14:00:59;;;;;;;;;;;13.60;63.60;;;;;;5040451;28;87768;-38
2022/10/14 14:03:34;;;;;;;;;;;13.60;63.00;;;;;;5042216;28;87988;-38
2022/10/14 14:06:01;;;;;;;;;;;13.60;63.20;;;;;;5045739;27;88288;-38
2022/10/14 14:08:30;;;;;;;;;;;13.50;63.30;;;;;;5042900;28;87164;-37
2022/10/14 14:11:00;;;;;;;;;;;13.60;62.70;;;;;;5042711;27;87679;-37
2022/10/14 14:13:29;;;;;;;;;;;13.60;62.70;;;;;;5042443;28;87198;-38
2022/10/14 14:15:55;;;;;;;;;;;13.60;62.30;;;;;;5042655;28;87109;-37
2022/10/14 14:18:26;;;;;;;;;;;13.60;61.60;;;;;;5042699;27;86999;-37
2022/10/14 14:20:58;;;;;;;;;;;13.60;62.00;;;;;;5042871;28;87282;-38
2022/10/14 14:23:27;;;;;;;;;;;13.60;61.30;;;;;;5041911;28;87161;-37
2022/10/14 14:25:53;;;;;;;;;;;13.60;62.20;;;;;;5045127;27;87097;-37
2022/10/14 14:28:18;;;;;;;;;;;13.60;61.30;;;;;;5042030;28;88025;-37
2022/10/14 14:30:52;;;;;;;;;;;13.60;61.40;;;;;;5042726;27;88286;-37
2022/10/14 14:33:18;;;;;;;;;;;13.60;61.30;;;;;;5042041;28;88020;-38